createdAt,value
2023-05-22T00:00:31.888Z,35.78
2023-05-22T00:02:38.674Z,35.99
2023-05-22T00:04:40.962Z,35.96
2023-05-22T00:06:43.094Z,35.98
2023-05-22T00:08:44.738Z,35.77
2023-05-22T00:10:46.241Z,36.01
2023-05-22T00:12:47.733Z,35.82
2023-05-22T00:14:49.300Z,35.84
2023-05-22T00:16:50.738Z,35.61
2023-05-22T00:18:52.356Z,35.85
2023-05-22T00:20:54.312Z,35.82
2023-05-22T00:22:56.855Z,35.66
2023-05-22T00:24:58.410Z,35.90
2023-05-22T00:27:00.032Z,35.91
2023-05-22T00:29:01.968Z,35.50
2023-05-22T00:31:03.720Z,35.82
2023-05-22T00:33:05.264Z,35.71
2023-05-22T00:35:07.111Z,35.80
2023-05-22T00:37:08.651Z,35.63
2023-05-22T00:39:10.226Z,35.72
2023-05-22T00:41:11.814Z,35.74
2023-05-22T00:43:13.341Z,35.63
2023-05-22T00:45:15.152Z,35.67
2023-05-22T00:47:16.645Z,35.64
2023-05-22T00:49:18.107Z,35.63
2023-05-22T00:51:22.778Z,35.49
2023-05-22T00:53:25.043Z,35.32
2023-05-22T00:55:26.638Z,35.32
2023-05-22T00:57:28.186Z,35.49
2023-05-22T00:59:29.825Z,35.74
2023-05-22T01:01:33.469Z,35.50
2023-05-22T01:03:47.841Z,35.53
2023-05-22T01:05:49.574Z,35.56
2023-05-22T01:07:51.671Z,35.48
2023-05-22T01:09:53.164Z,35.33
2023-05-22T01:12:06.669Z,35.53
2023-05-22T01:14:10.873Z,35.10
2023-05-22T01:16:19.002Z,35.48
2023-05-22T01:18:29.231Z,35.38
2023-05-22T01:20:48.847Z,35.21
2023-05-22T01:23:05.854Z,35.21
2023-05-22T01:25:28.984Z,35.29
2023-05-22T01:27:35.030Z,34.96
2023-05-22T01:29:42.254Z,34.96
2023-05-22T01:31:45.710Z,35.22
2023-05-22T01:33:48.929Z,35.26
2023-05-22T01:35:53.843Z,35.15
2023-05-22T01:37:56.557Z,34.78
2023-05-22T01:39:58.355Z,35.08
2023-05-22T01:42:00.300Z,35.08
2023-05-22T01:44:02.228Z,35.00
2023-05-22T01:46:04.888Z,35.12
2023-05-22T01:48:06.617Z,34.76
2023-05-22T01:50:08.834Z,35.08
2023-05-22T01:52:12.858Z,35.07
2023-05-22T01:54:30.322Z,35.36
2023-05-22T01:56:41.372Z,35.08
2023-05-22T01:58:58.261Z,35.09
2023-05-22T02:01:03.584Z,34.87
2023-05-22T02:03:08.103Z,34.85
2023-05-22T02:05:11.661Z,34.74
2023-05-22T02:07:14.460Z,34.75
2023-05-22T02:09:16.982Z,35.01
2023-05-22T02:11:20.065Z,34.85
2023-05-22T02:13:22.264Z,34.76
2023-05-22T02:15:24.071Z,34.70
2023-05-22T02:17:26.115Z,34.89
2023-05-22T02:19:28.110Z,34.68
2023-05-22T02:21:29.648Z,34.77
2023-05-22T02:23:31.160Z,34.89
2023-05-22T02:25:32.725Z,34.59
2023-05-22T02:27:34.318Z,34.88
2023-05-22T02:29:36.028Z,34.81
2023-05-22T02:31:37.815Z,34.88
2023-05-22T02:33:39.330Z,34.65
2023-05-22T02:35:40.946Z,34.83
2023-05-22T02:37:42.587Z,34.49
2023-05-22T02:39:44.171Z,34.77
2023-05-22T02:41:45.872Z,34.79
2023-05-22T02:43:47.364Z,34.73
2023-05-22T02:45:48.784Z,34.71
2023-05-22T02:47:50.496Z,34.47
2023-05-22T02:49:52.030Z,34.57
2023-05-22T02:51:53.530Z,34.76
2023-05-22T02:53:55.016Z,34.67
2023-05-22T02:55:58.896Z,34.66
2023-05-22T02:58:00.476Z,34.36
2023-05-22T03:00:02.125Z,34.42
2023-05-22T03:02:03.870Z,34.65
2023-05-22T03:04:06.661Z,34.67
2023-05-22T03:06:08.902Z,34.41
2023-05-22T03:08:11.066Z,34.46
2023-05-22T03:10:12.649Z,34.62
2023-05-22T03:12:14.092Z,34.59
2023-05-22T03:14:15.577Z,34.65
2023-05-22T03:16:17.138Z,34.26
2023-05-22T03:18:18.750Z,34.25
2023-05-22T03:20:20.303Z,34.50
2023-05-22T03:22:23.128Z,34.34
2023-05-22T03:24:24.648Z,34.49
2023-05-22T03:26:28.264Z,34.58
2023-05-22T03:28:29.799Z,34.43
2023-05-22T03:30:35.018Z,34.54
2023-05-22T03:32:37.863Z,34.53
2023-05-22T03:34:39.542Z,34.37
2023-05-22T03:36:41.303Z,34.38
2023-05-22T03:38:42.765Z,34.39
2023-05-22T03:40:44.237Z,34.35
2023-05-22T03:42:45.727Z,34.44
2023-05-22T03:44:47.280Z,34.60
2023-05-22T03:46:48.750Z,34.55
2023-05-22T03:48:50.311Z,34.52
2023-05-22T03:50:52.085Z,34.12
2023-05-22T03:52:53.816Z,34.19
2023-05-22T03:54:55.367Z,34.47
2023-05-22T03:56:56.916Z,34.46
2023-05-22T03:58:58.492Z,34.46
2023-05-22T04:01:01.155Z,34.46
2023-05-22T04:03:03.602Z,34.29
2023-05-22T04:05:09.285Z,34.75
2023-05-22T04:07:13.065Z,34.66
2023-05-22T04:09:15.091Z,34.71
2023-05-22T04:11:16.827Z,34.29
2023-05-22T04:13:18.462Z,34.45
2023-05-22T04:15:19.960Z,34.36
2023-05-22T04:17:21.475Z,34.57
2023-05-22T04:19:23.333Z,34.68
2023-05-22T04:21:24.809Z,34.24
2023-05-22T04:23:26.305Z,34.55
2023-05-22T04:25:27.899Z,34.61
2023-05-22T04:27:29.768Z,34.41
2023-05-22T04:29:31.212Z,34.58
2023-05-22T04:31:33.226Z,34.33
2023-05-22T04:33:34.867Z,34.45
2023-05-22T04:35:36.347Z,34.51
2023-05-22T04:37:38.477Z,34.51
2023-05-22T04:39:40.380Z,34.53
2023-05-22T04:41:41.959Z,34.70
2023-05-22T04:43:44.061Z,34.35
2023-05-22T04:45:46.294Z,34.64
2023-05-22T04:47:47.874Z,34.28
2023-05-22T04:49:49.538Z,34.38
2023-05-22T04:51:51.191Z,34.38
2023-05-22T04:53:52.784Z,34.59
2023-05-22T04:55:54.694Z,34.67
2023-05-22T04:57:56.355Z,34.35
2023-05-22T04:59:58.124Z,34.68
2023-05-22T05:01:59.637Z,34.53
2023-05-22T05:04:02.259Z,34.79
2023-05-22T05:06:03.989Z,34.48
2023-05-22T05:08:05.601Z,34.64
2023-05-22T05:10:07.526Z,34.64
2023-05-22T05:12:09.210Z,34.29
2023-05-22T05:14:10.719Z,34.53
2023-05-22T05:16:12.394Z,34.77
2023-05-22T05:18:14.152Z,34.74
2023-05-22T05:20:15.684Z,34.74
2023-05-22T05:22:17.202Z,34.60
2023-05-22T05:24:18.787Z,34.67
2023-05-22T05:26:21.833Z,34.82
2023-05-22T05:28:23.388Z,34.71
2023-05-22T05:30:24.860Z,34.55
2023-05-22T05:32:26.933Z,34.73
2023-05-22T05:34:28.510Z,34.71
2023-05-22T05:36:30.221Z,34.50
2023-05-22T05:38:31.757Z,34.47
2023-05-22T05:40:33.336Z,34.67
2023-05-22T05:42:34.751Z,34.60
2023-05-22T05:44:36.480Z,34.79
2023-05-22T05:46:37.959Z,34.93
2023-05-22T05:48:39.581Z,34.96
2023-05-22T05:50:41.492Z,34.71
2023-05-22T05:52:43.132Z,34.60
2023-05-22T05:54:47.440Z,34.89
2023-05-22T05:56:48.977Z,34.90
2023-05-22T05:58:50.612Z,34.99
2023-05-22T06:00:52.193Z,34.83
2023-05-22T06:02:53.760Z,34.96
2023-05-22T06:04:56.039Z,34.74
2023-05-22T06:06:57.531Z,34.68
2023-05-22T06:08:59.070Z,34.98
2023-05-22T06:11:01.133Z,35.08
2023-05-22T06:13:02.745Z,34.73
2023-05-22T06:15:05.469Z,34.75
2023-05-22T06:17:09.125Z,35.00
2023-05-22T06:19:10.839Z,35.21
2023-05-22T06:21:12.786Z,35.00
2023-05-22T06:23:14.276Z,35.10
2023-05-22T06:25:15.752Z,35.26
2023-05-22T06:27:17.408Z,35.04
2023-05-22T06:29:18.897Z,35.05
2023-05-22T06:31:21.683Z,35.07
2023-05-22T06:33:23.511Z,34.90
2023-05-22T06:35:25.425Z,35.13
2023-05-22T06:37:26.964Z,35.08
2023-05-22T06:39:29.844Z,35.00
2023-05-22T06:41:33.615Z,35.02
2023-05-22T06:43:35.809Z,35.04
2023-05-22T06:45:38.350Z,34.92
2023-05-22T06:47:39.877Z,35.30
2023-05-22T06:49:41.462Z,35.34
2023-05-22T06:51:43.264Z,35.03
2023-05-22T06:53:44.738Z,35.32
2023-05-22T06:55:46.219Z,34.94
2023-05-22T06:57:47.650Z,35.20
2023-05-22T06:59:49.240Z,35.24
2023-05-22T07:01:51.271Z,35.17
2023-05-22T07:03:57.486Z,35.32
2023-05-22T07:05:59.516Z,35.43
2023-05-22T07:08:01.608Z,35.27
2023-05-22T07:10:03.414Z,35.43
2023-05-22T07:12:05.534Z,35.12
2023-05-22T07:14:07.904Z,35.42
2023-05-22T07:16:12.431Z,35.44
2023-05-22T07:18:15.793Z,35.45
2023-05-22T07:20:17.745Z,35.41
2023-05-22T07:22:19.381Z,35.31
2023-05-22T07:24:20.833Z,35.56
2023-05-22T07:26:22.685Z,35.55
2023-05-22T07:28:24.227Z,35.52
2023-05-22T07:30:25.755Z,35.34
2023-05-22T07:32:27.275Z,35.80
2023-05-22T07:34:33.132Z,35.39
2023-05-22T07:36:34.887Z,35.78
2023-05-22T07:38:36.387Z,35.63
2023-05-22T07:40:38.161Z,35.49
2023-05-22T07:42:39.912Z,35.71
2023-05-22T07:44:41.386Z,35.73
2023-05-22T07:46:43.294Z,35.80
2023-05-22T07:48:44.977Z,35.87
2023-05-22T07:50:46.481Z,35.73
2023-05-22T07:52:47.920Z,35.65
2023-05-22T07:54:49.469Z,35.87
2023-05-22T07:56:51.910Z,35.65
2023-05-22T07:58:53.592Z,35.87
2023-05-22T08:00:55.902Z,35.92
2023-05-22T08:02:57.873Z,35.83
2023-05-22T08:04:59.677Z,36.03
2023-05-22T08:07:01.662Z,35.92
2023-05-22T08:09:04.686Z,35.69
2023-05-22T08:11:06.543Z,35.73
2023-05-22T08:13:08.701Z,35.90
2023-05-22T08:15:11.030Z,35.75
2023-05-22T08:17:13.096Z,36.03
2023-05-22T08:19:15.123Z,36.01
2023-05-22T08:21:16.773Z,36.22
2023-05-22T08:23:19.362Z,36.15
2023-05-22T08:25:21.260Z,36.22
2023-05-22T08:27:22.886Z,36.14
2023-05-22T08:29:24.566Z,36.25
2023-05-22T08:31:27.902Z,36.31
2023-05-22T08:33:29.507Z,36.09
2023-05-22T08:35:31.173Z,35.98
2023-05-22T08:37:32.745Z,36.07
2023-05-22T08:39:34.334Z,36.25
2023-05-22T08:41:35.871Z,36.25
2023-05-22T08:43:37.402Z,36.20
2023-05-22T08:45:42.539Z,36.43
2023-05-22T08:47:44.620Z,36.29
2023-05-22T08:49:50.478Z,36.29
2023-05-22T08:51:57.964Z,35.97
2023-05-22T08:54:01.026Z,36.38
2023-05-22T08:56:03.744Z,36.45
2023-05-22T08:58:05.692Z,36.60
2023-05-22T09:00:07.914Z,36.54
2023-05-22T09:02:09.906Z,36.64
2023-05-22T09:04:11.792Z,36.44
2023-05-22T09:06:13.345Z,36.52
2023-05-22T09:08:20.549Z,36.31
2023-05-22T09:10:22.796Z,36.42
2023-05-22T09:12:25.413Z,36.01
2023-05-22T09:14:26.877Z,36.25
2023-05-22T09:16:28.380Z,36.22
2023-05-22T09:18:30.250Z,36.66
2023-05-22T09:20:39.122Z,36.74
2023-05-22T09:22:40.990Z,36.62
2023-05-22T09:24:43.482Z,36.73
2023-05-22T09:26:45.074Z,36.75
2023-05-22T09:28:47.187Z,36.65
2023-05-22T09:30:52.399Z,36.80
2023-05-22T09:32:54.827Z,36.55
2023-05-22T09:35:02.342Z,36.66
2023-05-22T09:37:04.082Z,36.86
2023-05-22T09:39:05.650Z,36.50
2023-05-22T09:41:07.217Z,36.82
2023-05-22T09:43:12.161Z,36.73
2023-05-22T09:45:13.794Z,36.78
2023-05-22T09:47:15.644Z,36.87
2023-05-22T09:49:17.624Z,36.83
2023-05-22T09:51:26.481Z,36.93
2023-05-22T09:53:28.957Z,37.07
2023-05-22T09:55:32.096Z,36.62
2023-05-22T09:57:39.902Z,36.69
2023-05-22T09:59:42.937Z,36.96
2023-05-22T10:01:47.712Z,36.83
2023-05-22T10:03:53.013Z,36.88
2023-05-22T10:05:56.128Z,37.00
2023-05-22T10:08:02.343Z,37.24
2023-05-22T10:10:11.412Z,37.05
2023-05-22T10:12:16.379Z,37.17
2023-05-22T10:14:18.173Z,37.00
2023-05-22T10:16:20.218Z,36.90
2023-05-22T10:18:21.853Z,37.34
2023-05-22T10:20:24.246Z,37.31
2023-05-22T10:22:27.972Z,37.02
2023-05-22T10:24:29.902Z,37.14
2023-05-22T10:26:31.700Z,37.36
2023-05-22T10:28:38.405Z,37.27
2023-05-22T10:30:40.352Z,37.33
2023-05-22T10:32:45.563Z,37.56
2023-05-22T10:35:03.143Z,37.30
2023-05-22T10:37:18.423Z,37.49
2023-05-22T10:39:33.984Z,37.45
2023-05-22T10:41:35.627Z,37.65
2023-05-22T10:43:43.770Z,37.40
2023-05-22T10:45:46.636Z,37.67
2023-05-22T10:47:48.193Z,37.65
2023-05-22T10:49:51.197Z,37.61
2023-05-22T10:51:55.812Z,37.47
2023-05-22T10:54:05.467Z,37.67
2023-05-22T10:56:11.082Z,37.56
2023-05-22T10:58:12.957Z,37.79
2023-05-22T11:00:19.282Z,37.98
2023-05-22T11:02:21.821Z,37.57
2023-05-22T11:04:25.250Z,37.81
2023-05-22T11:06:45.976Z,38.04
2023-05-22T11:08:48.733Z,37.94
2023-05-22T11:10:54.332Z,38.03
2023-05-22T11:13:13.984Z,38.08
2023-05-22T11:15:15.934Z,37.91
2023-05-22T11:17:21.862Z,38.21
2023-05-22T11:19:24.208Z,37.97
2023-05-22T11:21:28.781Z,38.11
2023-05-22T11:23:33.393Z,38.02
2023-05-22T11:25:36.479Z,38.01
2023-05-22T11:27:39.343Z,38.09
2023-05-22T11:29:41.092Z,38.16
2023-05-22T11:31:42.874Z,37.97
2023-05-22T11:33:45.826Z,38.24
2023-05-22T11:35:48.068Z,38.14
2023-05-22T11:37:50.248Z,38.23
2023-05-22T11:39:55.918Z,38.22
2023-05-22T11:41:57.560Z,38.09
2023-05-22T11:43:59.502Z,37.91
2023-05-22T11:46:05.243Z,38.05
2023-05-22T11:48:08.288Z,38.10
2023-05-22T11:50:10.563Z,38.36
2023-05-22T11:52:12.079Z,38.14
2023-05-22T11:54:13.617Z,38.32
2023-05-22T11:56:15.372Z,38.38
2023-05-22T11:58:18.626Z,38.13
2023-05-22T12:00:20.374Z,38.29
2023-05-22T12:02:22.023Z,38.15
2023-05-22T12:04:23.683Z,38.11
2023-05-22T12:06:25.332Z,38.20
2023-05-22T12:08:27.068Z,37.97
2023-05-22T12:10:28.859Z,37.83
2023-05-22T12:12:30.514Z,38.17
2023-05-22T12:14:32.031Z,37.75
2023-05-22T12:16:36.882Z,37.70
2023-05-22T12:18:38.575Z,37.59
2023-05-22T12:20:43.780Z,38.00
2023-05-22T12:22:45.292Z,37.89
2023-05-22T12:24:46.833Z,37.90
2023-05-22T12:26:51.905Z,38.13
2023-05-22T12:28:53.820Z,38.13
2023-05-22T12:30:55.889Z,38.27
2023-05-22T12:32:57.933Z,38.53
2023-05-22T12:34:59.938Z,38.50
2023-05-22T12:37:01.819Z,38.64
2023-05-22T12:39:07.119Z,38.58
2023-05-22T12:41:08.599Z,38.62
2023-05-22T12:43:10.101Z,38.79
2023-05-22T12:45:12.284Z,38.91
2023-05-22T12:47:13.984Z,39.04
2023-05-22T12:49:15.693Z,38.98
2023-05-22T12:51:18.644Z,39.06
2023-05-22T12:53:21.575Z,39.10
2023-05-22T12:55:23.280Z,39.28
2023-05-22T12:57:24.842Z,39.18
2023-05-22T12:59:26.435Z,39.00
2023-05-22T13:01:28.118Z,39.13
2023-05-22T13:03:29.736Z,39.19
2023-05-22T13:05:31.275Z,39.27
2023-05-22T13:07:33.293Z,39.41
2023-05-22T13:09:34.960Z,39.40
2023-05-22T13:11:37.017Z,39.24
2023-05-22T13:13:38.784Z,39.48
2023-05-22T13:15:40.729Z,39.41
2023-05-22T13:17:42.850Z,39.67
2023-05-22T13:19:44.480Z,39.66
2023-05-22T13:21:45.952Z,39.50
2023-05-22T13:23:47.461Z,39.62
2023-05-22T13:25:49.050Z,39.60
2023-05-22T13:27:50.592Z,39.56
2023-05-22T13:29:52.383Z,39.45
2023-05-22T13:31:53.878Z,39.82
2023-05-22T13:33:55.497Z,39.65
2023-05-22T13:35:56.955Z,39.59
2023-05-22T13:37:58.522Z,39.97
2023-05-22T13:40:00.028Z,39.88
2023-05-22T13:42:01.711Z,39.88
2023-05-22T13:44:03.245Z,40.21
2023-05-22T13:46:04.921Z,40.36
2023-05-22T13:48:06.434Z,39.89
2023-05-22T13:50:08.364Z,40.57
2023-05-22T13:52:09.873Z,40.63
2023-05-22T13:54:11.586Z,40.20
2023-05-22T13:56:13.304Z,40.36
2023-05-22T13:58:14.771Z,40.58
2023-05-22T14:00:16.592Z,40.89
2023-05-22T14:02:20.567Z,40.55
2023-05-22T14:04:22.454Z,40.64
2023-05-22T14:06:24.640Z,40.70
2023-05-22T14:08:26.232Z,40.62
2023-05-22T14:10:27.722Z,40.88
2023-05-22T14:12:29.285Z,40.96
2023-05-22T14:14:30.821Z,40.63
2023-05-22T14:16:32.431Z,40.70
2023-05-22T14:18:33.939Z,40.93
2023-05-22T14:20:35.466Z,41.23
2023-05-22T14:22:47.993Z,40.86
2023-05-22T14:24:57.786Z,41.05
2023-05-22T14:26:59.487Z,41.30
2023-05-22T14:29:01.200Z,41.29
2023-05-22T14:31:02.816Z,41.17
2023-05-22T14:33:04.697Z,41.15
2023-05-22T14:35:06.523Z,41.23
2023-05-22T14:37:08.085Z,40.91
2023-05-22T14:39:12.622Z,41.14
2023-05-22T14:41:14.140Z,41.28
2023-05-22T14:43:15.756Z,40.90
2023-05-22T14:45:17.252Z,40.91
2023-05-22T14:47:18.757Z,41.03
2023-05-22T14:49:20.346Z,40.91
2023-05-22T14:51:22.012Z,40.80
2023-05-22T14:53:23.590Z,41.18
2023-05-22T14:55:27.693Z,40.96
2023-05-22T14:57:29.565Z,41.12
2023-05-22T14:59:31.732Z,40.79
2023-05-22T15:01:33.328Z,40.89
2023-05-22T15:03:34.963Z,40.89
2023-05-22T15:05:36.415Z,40.61
2023-05-22T15:09:42.627Z,40.69
2023-05-22T15:11:46.800Z,41.02
2023-05-22T15:13:48.789Z,41.01
2023-05-22T15:15:50.389Z,40.63
2023-05-22T15:17:51.924Z,40.56
2023-05-22T15:19:53.409Z,40.49
2023-05-22T15:21:57.307Z,40.57
2023-05-22T15:24:02.301Z,40.66
2023-05-22T15:26:04.022Z,40.94
2023-05-22T15:28:08.332Z,40.70
2023-05-22T15:30:10.274Z,40.52
2023-05-22T15:32:11.976Z,40.43
2023-05-22T15:34:13.551Z,40.40
2023-05-22T15:36:15.105Z,40.62
2023-05-22T15:38:16.652Z,40.35
2023-05-22T15:40:22.400Z,40.35
2023-05-22T15:42:24.611Z,40.58
2023-05-22T15:44:26.406Z,40.44
2023-05-22T15:46:28.054Z,40.37
2023-05-22T15:48:32.261Z,40.52
2023-05-22T15:50:34.369Z,40.55
2023-05-22T15:52:36.231Z,40.62
2023-05-22T15:54:37.858Z,40.93
2023-05-22T15:56:39.753Z,40.73
2023-05-22T15:58:41.249Z,40.79
2023-05-22T16:00:42.941Z,40.87
2023-05-22T16:02:44.636Z,40.73
2023-05-22T16:04:46.268Z,40.70
2023-05-22T16:06:47.896Z,40.87
2023-05-22T16:08:49.431Z,40.74
2023-05-22T16:10:50.984Z,40.78
2023-05-22T16:12:52.581Z,40.81
2023-05-22T16:14:59.975Z,40.47
2023-05-22T16:17:02.167Z,40.64
2023-05-22T16:19:03.808Z,40.72
2023-05-22T16:21:05.656Z,40.96
2023-05-22T16:23:07.320Z,41.13
2023-05-22T16:25:09.134Z,40.86
2023-05-22T16:27:10.746Z,40.84
2023-05-22T16:29:12.289Z,40.80
2023-05-22T16:31:18.957Z,40.97
2023-05-22T16:33:20.965Z,41.15
2023-05-22T16:35:22.582Z,41.17
2023-05-22T16:37:24.478Z,41.21
2023-05-22T16:39:26.981Z,40.86
2023-05-22T16:41:28.501Z,41.05
2023-05-22T16:43:30.034Z,41.02
2023-05-22T16:45:31.604Z,40.79
2023-05-22T16:47:33.283Z,40.99
2023-05-22T16:49:34.900Z,40.85
2023-05-22T16:51:36.484Z,40.87
2023-05-22T16:53:38.633Z,40.66
2023-05-22T16:55:40.506Z,41.10
2023-05-22T16:57:43.211Z,40.90
2023-05-22T16:59:44.802Z,40.94
2023-05-22T17:01:46.895Z,41.02
2023-05-22T17:03:48.474Z,41.11
2023-05-22T17:05:51.837Z,41.12
2023-05-22T17:07:53.330Z,40.90
2023-05-22T17:09:54.809Z,41.15
2023-05-22T17:11:56.354Z,40.87
2023-05-22T17:13:57.916Z,41.00
2023-05-22T17:15:59.528Z,41.09
2023-05-22T17:18:01.234Z,40.78
2023-05-22T17:20:06.077Z,40.81
2023-05-22T17:22:07.744Z,40.72
2023-05-22T17:24:12.641Z,40.82
2023-05-22T17:26:15.594Z,40.90
2023-05-22T17:28:17.411Z,40.83
2023-05-22T17:30:18.948Z,40.79
2023-05-22T17:32:20.541Z,40.88
2023-05-22T17:34:22.526Z,40.90
2023-05-22T17:36:24.137Z,40.83
2023-05-22T17:38:25.778Z,40.67
2023-05-22T17:40:40.550Z,41.19
2023-05-22T17:42:46.674Z,40.90
2023-05-22T17:44:48.419Z,41.17
2023-05-22T17:46:49.893Z,41.02
2023-05-22T17:48:55.221Z,40.55
2023-05-22T17:50:56.800Z,40.86
2023-05-22T17:52:58.600Z,40.72
2023-05-22T17:55:00.246Z,40.80
2023-05-22T17:57:04.186Z,40.84
2023-05-22T17:59:06.967Z,40.61
2023-05-22T18:01:08.641Z,40.75
2023-05-22T18:03:10.274Z,40.15
2023-05-22T18:05:11.973Z,40.57
2023-05-22T18:07:13.626Z,40.31
2023-05-22T18:09:15.150Z,40.06
2023-05-22T18:11:16.682Z,39.81
2023-05-22T18:13:19.611Z,39.89
2023-05-22T18:15:21.193Z,39.85
2023-05-22T18:17:23.227Z,39.84
2023-05-22T18:19:24.807Z,39.84
2023-05-22T18:21:26.549Z,39.52
2023-05-22T18:23:28.233Z,40.11
2023-05-22T18:25:29.691Z,40.54
2023-05-22T18:27:31.450Z,39.83
2023-05-22T18:29:33.068Z,39.88
2023-05-22T18:31:34.634Z,39.93
2023-05-22T18:33:36.142Z,40.03
2023-05-22T18:35:38.080Z,40.05
2023-05-22T18:37:39.532Z,39.86
2023-05-22T18:39:41.145Z,39.86
2023-05-22T18:41:42.606Z,40.21
2023-05-22T18:43:44.134Z,40.09
2023-05-22T18:45:45.673Z,40.39
2023-05-22T18:47:47.382Z,40.26
2023-05-22T18:49:49.009Z,40.31
2023-05-22T18:51:50.883Z,40.40
2023-05-22T18:53:52.399Z,40.28
2023-05-22T18:55:54.261Z,40.12
2023-05-22T18:57:56.025Z,40.46
2023-05-22T18:59:57.824Z,40.70
2023-05-22T19:01:59.298Z,40.77
2023-05-22T19:04:01.006Z,40.55
2023-05-22T19:06:02.651Z,41.13
2023-05-22T19:08:04.799Z,41.11
2023-05-22T19:10:08.090Z,41.03
2023-05-22T19:12:09.883Z,41.16
2023-05-22T19:14:11.756Z,41.04
2023-05-22T19:16:13.679Z,40.88
2023-05-22T19:18:15.899Z,40.71
2023-05-22T19:20:17.465Z,40.73
2023-05-22T19:22:18.905Z,40.96
2023-05-22T19:24:20.765Z,40.75
2023-05-22T19:26:22.344Z,40.75
2023-05-22T19:28:24.582Z,40.92
2023-05-22T19:30:26.164Z,40.70
2023-05-22T19:32:27.728Z,40.79
2023-05-22T19:34:29.217Z,41.02
2023-05-22T19:36:31.460Z,40.64
2023-05-22T19:38:33.085Z,40.83
2023-05-22T19:40:34.726Z,40.80
2023-05-22T19:42:37.154Z,40.77
2023-05-22T19:44:38.594Z,40.81
2023-05-22T19:46:40.291Z,40.96
2023-05-22T19:48:41.822Z,41.01
2023-05-22T19:50:43.490Z,40.85
2023-05-22T19:52:45.277Z,40.88
2023-05-22T19:54:46.792Z,41.07
2023-05-22T19:56:48.278Z,40.88
2023-05-22T19:58:49.946Z,41.17
2023-05-22T20:00:51.739Z,41.13
2023-05-22T20:02:53.516Z,40.65
2023-05-22T20:04:55.181Z,40.97
2023-05-22T20:06:58.668Z,40.96
2023-05-22T20:09:01.625Z,41.03
2023-05-22T20:11:03.244Z,41.07
2023-05-22T20:13:05.196Z,40.69
2023-05-22T20:15:06.998Z,40.83
2023-05-22T20:17:08.488Z,41.08
2023-05-22T20:19:10.375Z,40.73
2023-05-22T20:21:12.035Z,40.73
2023-05-22T20:23:13.509Z,40.72
2023-05-22T20:25:15.052Z,40.97
2023-05-22T20:27:16.760Z,40.81
2023-05-22T20:29:18.385Z,40.87
2023-05-22T20:31:19.974Z,40.76
2023-05-22T20:33:21.541Z,41.11
2023-05-22T20:35:23.175Z,40.62
2023-05-22T20:37:24.729Z,40.72
2023-05-22T20:39:26.656Z,40.78
2023-05-22T20:41:28.461Z,40.96
2023-05-22T20:43:30.754Z,40.77
2023-05-22T20:45:32.535Z,40.66
2023-05-22T20:47:34.662Z,40.74
2023-05-22T20:49:36.165Z,40.60
2023-05-22T20:51:37.917Z,40.87
2023-05-22T20:53:39.409Z,40.90
2023-05-22T20:55:41.200Z,40.96
2023-05-22T20:57:43.143Z,40.84
2023-05-22T20:59:44.686Z,40.74
2023-05-22T21:01:46.480Z,40.76
2023-05-22T21:03:49.856Z,40.61
2023-05-22T21:05:51.387Z,40.19
2023-05-22T21:07:52.835Z,40.33
2023-05-22T21:09:54.512Z,39.62
2023-05-22T21:11:56.076Z,39.82
2023-05-22T21:13:58.083Z,39.57
2023-05-22T21:15:59.553Z,39.69
2023-05-22T21:18:01.083Z,39.12
2023-05-22T21:20:04.271Z,39.47
2023-05-22T21:22:05.735Z,39.22
2023-05-22T21:24:08.710Z,39.08
2023-05-22T21:26:10.366Z,39.07
2023-05-22T21:28:12.105Z,39.19
2023-05-22T21:30:14.933Z,39.10
2023-05-22T21:32:16.348Z,38.78
2023-05-22T21:34:17.994Z,38.64
2023-05-22T21:36:19.630Z,38.67
2023-05-22T21:38:21.104Z,38.52
2023-05-22T21:40:22.882Z,38.62
2023-05-22T21:42:26.185Z,38.64
2023-05-22T21:44:27.824Z,38.39
2023-05-22T21:46:29.455Z,38.45
2023-05-22T21:48:30.968Z,38.47
2023-05-22T21:50:32.601Z,38.44
2023-05-22T21:52:34.030Z,38.00
2023-05-22T21:54:35.484Z,38.51
2023-05-22T21:56:38.495Z,38.32
2023-05-22T21:58:40.950Z,38.28
2023-05-22T22:00:42.544Z,38.08
2023-05-22T22:02:44.101Z,38.32
2023-05-22T22:04:45.849Z,38.21
2023-05-22T22:06:47.334Z,38.24
2023-05-22T22:08:49.013Z,38.14
2023-05-22T22:10:50.789Z,37.95
2023-05-22T22:12:52.304Z,38.13
2023-05-22T22:14:53.906Z,38.04
2023-05-22T22:16:56.350Z,37.88
2023-05-22T22:18:58.014Z,37.58
2023-05-22T22:21:02.027Z,37.89
2023-05-22T22:23:03.559Z,37.69
2023-05-22T22:25:05.425Z,37.85
2023-05-22T22:27:07.173Z,37.88
2023-05-22T22:29:08.735Z,37.78
2023-05-22T22:31:10.349Z,37.59
2023-05-22T22:33:11.989Z,37.83
2023-05-22T22:35:13.549Z,37.82
2023-05-22T22:37:15.073Z,37.83
2023-05-22T22:39:16.751Z,37.51
2023-05-22T22:41:18.438Z,37.79
2023-05-22T22:43:19.995Z,37.77
2023-05-22T22:45:21.536Z,37.58
2023-05-22T22:47:23.170Z,37.63
2023-05-22T22:49:24.612Z,37.67
2023-05-22T22:51:26.677Z,37.47
2023-05-22T22:53:28.521Z,37.50
2023-05-22T22:55:30.078Z,37.31
2023-05-22T22:57:31.745Z,37.22
2023-05-22T22:59:35.379Z,37.52
2023-05-22T23:01:37.067Z,37.46
2023-05-22T23:03:38.576Z,37.43
2023-05-22T23:05:40.402Z,37.29
2023-05-22T23:07:44.280Z,37.33
2023-05-22T23:09:45.820Z,37.42
2023-05-22T23:11:48.727Z,37.36
2023-05-22T23:13:50.539Z,37.17
2023-05-22T23:15:52.199Z,37.17
2023-05-22T23:17:53.691Z,37.18
2023-05-22T23:19:55.208Z,37.39
2023-05-22T23:21:56.810Z,37.16
2023-05-22T23:24:00.158Z,37.30
2023-05-22T23:26:01.715Z,37.03
2023-05-22T23:28:03.255Z,37.22
2023-05-22T23:30:05.376Z,37.23
2023-05-22T23:32:07.246Z,36.86
2023-05-22T23:34:09.343Z,37.07
2023-05-22T23:36:10.910Z,37.20
2023-05-22T23:38:12.553Z,37.02
2023-05-22T23:40:14.050Z,37.19
2023-05-22T23:42:16.856Z,36.98
2023-05-22T23:44:18.394Z,36.92
2023-05-22T23:46:21.224Z,36.92
2023-05-22T23:48:22.848Z,36.76
2023-05-22T23:50:24.336Z,36.88
2023-05-22T23:52:26.491Z,36.81
2023-05-22T23:54:28.089Z,36.71
2023-05-22T23:56:29.624Z,36.73
2023-05-22T23:58:32.243Z,36.75
